Mega Smeralda — ICIU — position and weather

sailwx.info

Track history (hours):
 
Tides and Currents Weather Stations Pressure Air Temp Water Temp Dewpoint Dewpoint Depression Visibility Wind Speed Wind Dir Waves Ship Positions

Mega Smeralda

Last reported at 2017-Apr-24 18:58 UTC. Time now 2017-Apr-24 19:08 UTC.
Position N 43°28' E 008°05'.

Length 171 m; draft 6.5 m.

Type: Passenger vessel. MMSI: 247228600.

Date/timePositionNaut miles runAvg speedWind from/ knotsBaromVisibWave heightAir tempDewpointWater temp
2017-Apr-24 18:58N 43°28' E 008°05'1019.1
2017-Apr-24 18:27N 43°31' E 007°52'819.0
2017-Apr-24 18:00N 43°34' E 007°41'1019.4
2017-Apr-24 17:30N 43°37' E 007°28'917.7
2017-Apr-24 17:00N 43°41' E 007°17'1 1.0
2017-Apr-24 16:09N 43°42' E 007°17'0 0.0
2017-Apr-24 15:58N 43°42' E 007°17'2 3.8
2017-Apr-24 15:31N 43°40' E 007°18'1019.9
2017-Apr-24 15:01N 43°36' E 007°30'1020.5
2017-Apr-24 14:30N 43°32' E 007°44'3220.6
2017-Apr-24 12:56N 43°21' E 008°25'1020.2
2017-Apr-24 12:28N 43°18' E 008°37'1020.4
2017-Apr-24 11:58N 43°14' E 008°50'1220.1
2017-Apr-24 11:22N 43°10' E 009°06'720.1
2017-Apr-24 11:01N 43°07' E 009°15'1020.0
2017-Apr-24 10:30N 43°03' E 009°28'7 1.0
2017-Apr-24 03:37N 42°57' E 009°33'314.7
2017-Apr-24 03:27N 42°60' E 009°32'1114.4
2017-Apr-24 02:42N 43°09' E 009°25'514.0
2017-Apr-24 02:21N 43°13' E 009°22'514.0
2017-Apr-24 01:59N 43°17' E 009°18'814.0
2017-Apr-24 01:25N 43°24' E 009°12'614.0
2017-Apr-24 01:00N 43°29' E 009°08'713.9
2017-Apr-24 00:30N 43°35' E 009°03'713.8
2017-Apr-24 00:00N 43°41' E 008°59'713.8
2017-Apr-23 23:30N 43°47' E 008°54'713.8
2017-Apr-23 23:00N 43°53' E 008°49'713.6
2017-Apr-23 22:30N 43°59' E 008°44'713.6
2017-Apr-23 22:00N 44°05' E 008°39'714.0
2017-Apr-23 21:30N 44°11' E 008°34'713.3
2017-Apr-23 21:00N 44°16' E 008°28'1 1.9
2017-Apr-23 20:30N 44°16' E 008°27'1 2.9
2017-Apr-23 20:00N 44°16' E 008°29'1019.3
2017-Apr-23 19:30N 44°08' E 008°36'1020.4
2017-Apr-23 19:00N 43°57' E 008°38'1020.4
2017-Apr-23 18:30N 43°47' E 008°41'1020.5
2017-Apr-23 18:00N 43°37' E 008°43'1020.4
2017-Apr-23 17:31N 43°27' E 008°46'1020.4
2017-Apr-23 17:00N 43°17' E 008°48'1020.4
2017-Apr-23 16:30N 43°07' E 008°51'12713.9
2017-Apr-23 07:22N 43°04' E 005°58'3 8.1
2017-Apr-23 07:00N 43°07' E 005°56'0 0.1
2017-Apr-23 06:28N 43°07' E 005°56'0 0.6
2017-Apr-23 06:00N 43°07' E 005°55'4716.6
2017-Apr-23 03:10N 42°59' E 006°59'419.1
2017-Apr-23 02:56N 42°59' E 007°05'919.2
2017-Apr-23 02:28N 42°59' E 007°17'919.2
2017-Apr-23 02:00N 42°60' E 007°29'1119.1
2017-Apr-23 01:25N 43°01' E 007°45'5818.6
2017-Apr-22 22:16N 43°04' E 009°05'518.5
2017-Apr-22 22:01N 43°04' E 009°11'1018.4
2017-Apr-22 21:28N 43°04' E 009°25'20 5.1
2017-Apr-22 17:36N 42°53' E 009°47'219.8
2017-Apr-22 17:30N 42°54' E 009°49'1019.5
2017-Apr-22 17:00N 43°01' E 009°58'1019.8
2017-Apr-22 16:30N 43°11' E 010°03'1019.5
2017-Apr-22 16:00N 43°20' E 010°07'1019.7
2017-Apr-22 15:30N 43°29' E 010°12'611.7
2017-Apr-22 15:00N 43°33' E 010°17'0 0.8
2017-Apr-22 14:30N 43°33' E 010°18'0 0.0
2017-Apr-22 13:30N 43°33' E 010°18'0 0.0
2017-Apr-22 12:59N 43°33' E 010°18'1 1.3
2017-Apr-22 12:31N 43°33' E 010°17'611.7
2017-Apr-22 12:00N 43°28' E 010°12'1020.3
2017-Apr-22 11:30N 43°19' E 010°07'1020.1
2017-Apr-22 11:00N 43°09' E 010°02'1719.3
2017-Apr-22 10:07N 42°55' E 009°50'99 9.2
2017-Apr-21 23:28N 42°60' E 007°36'918.6
2017-Apr-21 23:00N 42°59' E 007°24'6317.7
2017-Apr-21 19:26N 43°05' E 005°58'3 6.9
2017-Apr-21 19:00N 43°07' E 005°56'0 0.4
2017-Apr-21 18:28N 43°07' E 005°56'0 0.0
2017-Apr-21 17:58N 43°07' E 005°56'0 0.0
2017-Apr-21 17:28N 43°07' E 005°56'0 0.0
2017-Apr-21 16:55N 43°07' E 005°56'0 0.0
2017-Apr-21 16:25N 43°07' E 005°56'0 0.0
2017-Apr-21 15:49N 43°07' E 005°56'0 0.0
2017-Apr-21 15:28N 43°07' E 005°56'2 3.6
2017-Apr-21 15:00N 43°05' E 005°57'2 0.1
2017-Apr-20 19:42N 43°04' E 005°59'313.1
2017-Apr-20 19:30N 43°05' E 005°56'2 3.1
2017-Apr-20 18:57N 43°07' E 005°56'0 0.0
2017-Apr-20 18:30N 43°07' E 005°56'0 0.0
2017-Apr-20 17:57N 43°07' E 005°56'0 0.0
2017-Apr-20 17:27N 43°07' E 005°56'0 0.0
2017-Apr-20 16:54N 43°07' E 005°56'0 0.0
2017-Apr-20 16:27N 43°07' E 005°56'0 0.0
2017-Apr-20 16:00N 43°07' E 005°56'0 0.0
2017-Apr-20 15:30N 43°07' E 005°56'0 0.0
2017-Apr-20 15:00N 43°07' E 005°56'0 0.0
2017-Apr-20 14:30N 43°07' E 005°56'0 0.0
2017-Apr-20 13:30N 43°07' E 005°56'0 0.0
2017-Apr-20 13:00N 43°07' E 005°56'0 0.0
2017-Apr-20 12:30N 43°07' E 005°56'0 0.0
2017-Apr-20 12:00N 43°07' E 005°56'0 0.0
2017-Apr-20 11:30N 43°07' E 005°56'0 0.0
2017-Apr-20 11:00N 43°07' E 005°56'0 0.0
2017-Apr-20 10:30N 43°07' E 005°56'0 0.0
2017-Apr-20 10:00N 43°07' E 005°56'0 0.0
2017-Apr-20 09:30N 43°07' E 005°56'0 0.0
2017-Apr-20 09:00N 43°07' E 005°56'0 0.0
2017-Apr-20 08:21N 43°07' E 005°56'0 0.0
2017-Apr-20 07:51N 43°07' E 005°56'0 0.0
2017-Apr-20 07:24N 43°07' E 005°56'0 0.0
2017-Apr-20 06:54N 43°07' E 005°56'0 0.0
2017-Apr-20 06:24N 43°07' E 005°56'0 0.0
2017-Apr-20 05:39N 43°07' E 005°56'0 0.0
2017-Apr-20 05:09N 43°07' E 005°56'0 0.3
2017-Apr-20 05:00N 43°07' E 005°56'3 0.1
2017-Apr-18 19:54N 43°04' E 005°58'3 7.6
2017-Apr-18 19:30N 43°07' E 005°56'0 0.0
2017-Apr-18 07:32N 43°07' E 005°56'0 0.4
2017-Apr-18 07:29N 43°07' E 005°56'3 0.1
2017-Apr-16 18:23N 43°05' E 005°58'3 7.5
2017-Apr-16 18:00N 43°07' E 005°56'0 0.2
2017-Apr-16 17:30N 43°07' E 005°56'0 0.0
2017-Apr-16 17:00N 43°07' E 005°56'0 0.0
2017-Apr-16 16:16N 43°07' E 005°56'0 0.0
2017-Apr-16 15:59N 43°07' E 005°56'0 0.0
2017-Apr-16 15:28N 43°07' E 005°56'0 0.0
2017-Apr-16 14:54N 43°07' E 005°56'0 0.0
2017-Apr-16 14:30N 43°07' E 005°56'0 0.0
2017-Apr-16 13:30N 43°07' E 005°56'0 0.0
2017-Apr-16 13:00N 43°07' E 005°56'0 0.0
2017-Apr-16 12:27N 43°07' E 005°56'0 0.0
2017-Apr-16 11:58N 43°07' E 005°56'0 0.0
2017-Apr-16 11:30N 43°07' E 005°56'0 0.0
2017-Apr-16 10:59N 43°07' E 005°56'0 0.0
2017-Apr-16 10:30N 43°07' E 005°56'0 0.0
2017-Apr-16 09:57N 43°07' E 005°56'0 0.0
2017-Apr-16 09:30N 43°07' E 005°56'0 0.0
2017-Apr-16 08:58N 43°07' E 005°56'0 0.0
2017-Apr-16 08:29N 43°07' E 005°56'0 0.0
2017-Apr-16 08:00N 43°07' E 005°56'0 0.0
2017-Apr-16 07:29N 43°07' E 005°56'0 0.0
2017-Apr-16 06:59N 43°07' E 005°56'0 0.0
2017-Apr-16 06:31N 43°07' E 005°56'1 2.0
2017-Apr-16 06:00N 43°06' E 005°55'4613.6
2017-Apr-16 02:40N 42°59' E 006°57'316.0
2017-Apr-16 02:30N 42°59' E 007°00'815.9
2017-Apr-16 02:00N 42°59' E 007°11'816.0
2017-Apr-16 01:30N 42°60' E 007°22'816.2
2017-Apr-16 00:59N 43°00' E 007°33'3916.1
2017-Apr-15 22:33N 43°02' E 008°27'116.1
2017-Apr-15 22:28N 43°02' E 008°29'715.8
2017-Apr-15 22:00N 43°03' E 008°39'815.8
2017-Apr-15 21:30N 43°03' E 008°49'815.9
2017-Apr-15 21:00N 43°03' E 009°00'816.0
2017-Apr-15 20:31N 43°04' E 009°11'816.5
2017-Apr-15 20:00N 43°04' E 009°23'715.1
2017-Apr-15 19:30N 43°01' E 009°31'14 3.3
2017-Apr-15 15:14N 42°53' E 009°47'417.4
2017-Apr-15 15:00N 42°55' E 009°52'816.0
2017-Apr-15 14:31N 43°01' E 009°59'2019.5
2017-Apr-15 13:31N 43°20' E 010°07'1019.5
2017-Apr-15 13:01N 43°29' E 010°12'611.3
2017-Apr-15 12:31N 43°33' E 010°17'0 0.8
2017-Apr-15 12:00N 43°33' E 010°18'0 0.0
2017-Apr-15 11:30N 43°33' E 010°18'0 0.0
2017-Apr-15 11:00N 43°33' E 010°18'0 0.0
2017-Apr-15 10:30N 43°33' E 010°18'3 5.3
2017-Apr-15 10:00N 43°31' E 010°15'917.8
2017-Apr-15 09:31N 43°23' E 010°10'1019.0
2017-Apr-15 09:00N 43°14' E 010°05'18013.2
2017-Apr-14 19:23N 43°04' E 005°58'3 8.6
2017-Apr-14 19:00N 43°07' E 005°56'  
Track history (hours):
 
Tides and Currents Weather Stations Pressure Air Temp Water Temp Dewpoint Dewpoint Depression Visibility Wind Speed Wind Dir Waves Ship Positions

Mega Smeralda

Last reported at 2017-Apr-24 18:58 UTC. Time now 2017-Apr-24 19:08 UTC.
Position N 43°28' E 008°05'.

Length 171 m; draft 6.5 m.

Type: Passenger vessel. MMSI: 247228600.

Date/timePositionNaut miles runAvg speedWind from/ knotsBaromVisibWave heightAir tempDewpointWater temp
2017-Apr-24 18:58N 43°28' E 008°05'1019.1
2017-Apr-24 18:27N 43°31' E 007°52'819.0
2017-Apr-24 18:00N 43°34' E 007°41'1019.4
2017-Apr-24 17:30N 43°37' E 007°28'917.7
2017-Apr-24 17:00N 43°41' E 007°17'1 1.0
2017-Apr-24 16:09N 43°42' E 007°17'0 0.0
2017-Apr-24 15:58N 43°42' E 007°17'2 3.8
2017-Apr-24 15:31N 43°40' E 007°18'1019.9
2017-Apr-24 15:01N 43°36' E 007°30'1020.5
2017-Apr-24 14:30N 43°32' E 007°44'3220.6
2017-Apr-24 12:56N 43°21' E 008°25'1020.2
2017-Apr-24 12:28N 43°18' E 008°37'1020.4
2017-Apr-24 11:58N 43°14' E 008°50'1220.1
2017-Apr-24 11:22N 43°10' E 009°06'720.1
2017-Apr-24 11:01N 43°07' E 009°15'1020.0
2017-Apr-24 10:30N 43°03' E 009°28'7 1.0
2017-Apr-24 03:37N 42°57' E 009°33'314.7
2017-Apr-24 03:27N 42°60' E 009°32'1114.4
2017-Apr-24 02:42N 43°09' E 009°25'514.0
2017-Apr-24 02:21N 43°13' E 009°22'514.0
2017-Apr-24 01:59N 43°17' E 009°18'814.0
2017-Apr-24 01:25N 43°24' E 009°12'614.0
2017-Apr-24 01:00N 43°29' E 009°08'713.9
2017-Apr-24 00:30N 43°35' E 009°03'713.8
2017-Apr-24 00:00N 43°41' E 008°59'713.8
2017-Apr-23 23:30N 43°47' E 008°54'713.8
2017-Apr-23 23:00N 43°53' E 008°49'713.6
2017-Apr-23 22:30N 43°59' E 008°44'713.6
2017-Apr-23 22:00N 44°05' E 008°39'714.0
2017-Apr-23 21:30N 44°11' E 008°34'713.3
2017-Apr-23 21:00N 44°16' E 008°28'1 1.9
2017-Apr-23 20:30N 44°16' E 008°27'1 2.9
2017-Apr-23 20:00N 44°16' E 008°29'1019.3
2017-Apr-23 19:30N 44°08' E 008°36'1020.4
2017-Apr-23 19:00N 43°57' E 008°38'1020.4
2017-Apr-23 18:30N 43°47' E 008°41'1020.5
2017-Apr-23 18:00N 43°37' E 008°43'1020.4
2017-Apr-23 17:31N 43°27' E 008°46'1020.4
2017-Apr-23 17:00N 43°17' E 008°48'1020.4
2017-Apr-23 16:30N 43°07' E 008°51'12713.9
2017-Apr-23 07:22N 43°04' E 005°58'3 8.1
2017-Apr-23 07:00N 43°07' E 005°56'0 0.1
2017-Apr-23 06:28N 43°07' E 005°56'0 0.6
2017-Apr-23 06:00N 43°07' E 005°55'4716.6
2017-Apr-23 03:10N 42°59' E 006°59'419.1
2017-Apr-23 02:56N 42°59' E 007°05'919.2
2017-Apr-23 02:28N 42°59' E 007°17'919.2
2017-Apr-23 02:00N 42°60' E 007°29'1119.1
2017-Apr-23 01:25N 43°01' E 007°45'5818.6
2017-Apr-22 22:16N 43°04' E 009°05'518.5
2017-Apr-22 22:01N 43°04' E 009°11'1018.4
2017-Apr-22 21:28N 43°04' E 009°25'20 5.1
2017-Apr-22 17:36N 42°53' E 009°47'219.8
2017-Apr-22 17:30N 42°54' E 009°49'1019.5
2017-Apr-22 17:00N 43°01' E 009°58'1019.8
2017-Apr-22 16:30N 43°11' E 010°03'1019.5
2017-Apr-22 16:00N 43°20' E 010°07'1019.7
2017-Apr-22 15:30N 43°29' E 010°12'611.7
2017-Apr-22 15:00N 43°33' E 010°17'0 0.8
2017-Apr-22 14:30N 43°33' E 010°18'0 0.0
2017-Apr-22 13:30N 43°33' E 010°18'0 0.0
2017-Apr-22 12:59N 43°33' E 010°18'1 1.3
2017-Apr-22 12:31N 43°33' E 010°17'611.7
2017-Apr-22 12:00N 43°28' E 010°12'1020.3
2017-Apr-22 11:30N 43°19' E 010°07'1020.1
2017-Apr-22 11:00N 43°09' E 010°02'1719.3
2017-Apr-22 10:07N 42°55' E 009°50'99 9.2
2017-Apr-21 23:28N 42°60' E 007°36'918.6
2017-Apr-21 23:00N 42°59' E 007°24'6317.7
2017-Apr-21 19:26N 43°05' E 005°58'3 6.9
2017-Apr-21 19:00N 43°07' E 005°56'0 0.4
2017-Apr-21 18:28N 43°07' E 005°56'0 0.0
2017-Apr-21 17:58N 43°07' E 005°56'0 0.0
2017-Apr-21 17:28N 43°07' E 005°56'0 0.0
2017-Apr-21 16:55N 43°07' E 005°56'0 0.0
2017-Apr-21 16:25N 43°07' E 005°56'0 0.0
2017-Apr-21 15:49N 43°07' E 005°56'0 0.0
2017-Apr-21 15:28N 43°07' E 005°56'2 3.6
2017-Apr-21 15:00N 43°05' E 005°57'2 0.1
2017-Apr-20 19:42N 43°04' E 005°59'313.1
2017-Apr-20 19:30N 43°05' E 005°56'2 3.1
2017-Apr-20 18:57N 43°07' E 005°56'0 0.0
2017-Apr-20 18:30N 43°07' E 005°56'0 0.0
2017-Apr-20 17:57N 43°07' E 005°56'0 0.0
2017-Apr-20 17:27N 43°07' E 005°56'0 0.0
2017-Apr-20 16:54N 43°07' E 005°56'0 0.0
2017-Apr-20 16:27N 43°07' E 005°56'0 0.0
2017-Apr-20 16:00N 43°07' E 005°56'0 0.0
2017-Apr-20 15:30N 43°07' E 005°56'0 0.0
2017-Apr-20 15:00N 43°07' E 005°56'0 0.0
2017-Apr-20 14:30N 43°07' E 005°56'0 0.0
2017-Apr-20 13:30N 43°07' E 005°56'0 0.0
2017-Apr-20 13:00N 43°07' E 005°56'0 0.0
2017-Apr-20 12:30N 43°07' E 005°56'0 0.0
2017-Apr-20 12:00N 43°07' E 005°56'0 0.0
2017-Apr-20 11:30N 43°07' E 005°56'0 0.0
2017-Apr-20 11:00N 43°07' E 005°56'0 0.0
2017-Apr-20 10:30N 43°07' E 005°56'0 0.0
2017-Apr-20 10:00N 43°07' E 005°56'0 0.0
2017-Apr-20 09:30N 43°07' E 005°56'0 0.0
2017-Apr-20 09:00N 43°07' E 005°56'0 0.0
2017-Apr-20 08:21N 43°07' E 005°56'0 0.0
2017-Apr-20 07:51N 43°07' E 005°56'0 0.0
2017-Apr-20 07:24N 43°07' E 005°56'0 0.0
2017-Apr-20 06:54N 43°07' E 005°56'0 0.0
2017-Apr-20 06:24N 43°07' E 005°56'0 0.0
2017-Apr-20 05:39N 43°07' E 005°56'0 0.0
2017-Apr-20 05:09N 43°07' E 005°56'0 0.3
2017-Apr-20 05:00N 43°07' E 005°56'3 0.1
2017-Apr-18 19:54N 43°04' E 005°58'3 7.6
2017-Apr-18 19:30N 43°07' E 005°56'0 0.0
2017-Apr-18 07:32N 43°07' E 005°56'0 0.4
2017-Apr-18 07:29N 43°07' E 005°56'3 0.1
2017-Apr-16 18:23N 43°05' E 005°58'3 7.5
2017-Apr-16 18:00N 43°07' E 005°56'0 0.2
2017-Apr-16 17:30N 43°07' E 005°56'0 0.0
2017-Apr-16 17:00N 43°07' E 005°56'0 0.0
2017-Apr-16 16:16N 43°07' E 005°56'0 0.0
2017-Apr-16 15:59N 43°07' E 005°56'0 0.0
2017-Apr-16 15:28N 43°07' E 005°56'0 0.0
2017-Apr-16 14:54N 43°07' E 005°56'0 0.0
2017-Apr-16 14:30N 43°07' E 005°56'0 0.0
2017-Apr-16 13:30N 43°07' E 005°56'0 0.0
2017-Apr-16 13:00N 43°07' E 005°56'0 0.0
2017-Apr-16 12:27N 43°07' E 005°56'0 0.0
2017-Apr-16 11:58N 43°07' E 005°56'0 0.0
2017-Apr-16 11:30N 43°07' E 005°56'0 0.0
2017-Apr-16 10:59N 43°07' E 005°56'0 0.0
2017-Apr-16 10:30N 43°07' E 005°56'0 0.0
2017-Apr-16 09:57N 43°07' E 005°56'0 0.0
2017-Apr-16 09:30N 43°07' E 005°56'0 0.0
2017-Apr-16 08:58N 43°07' E 005°56'0 0.0
2017-Apr-16 08:29N 43°07' E 005°56'0 0.0
2017-Apr-16 08:00N 43°07' E 005°56'0 0.0
2017-Apr-16 07:29N 43°07' E 005°56'0 0.0
2017-Apr-16 06:59N 43°07' E 005°56'0 0.0
2017-Apr-16 06:31N 43°07' E 005°56'1 2.0
2017-Apr-16 06:00N 43°06' E 005°55'4613.6
2017-Apr-16 02:40N 42°59' E 006°57'316.0
2017-Apr-16 02:30N 42°59' E 007°00'815.9
2017-Apr-16 02:00N 42°59' E 007°11'816.0
2017-Apr-16 01:30N 42°60' E 007°22'816.2
2017-Apr-16 00:59N 43°00' E 007°33'3916.1
2017-Apr-15 22:33N 43°02' E 008°27'116.1
2017-Apr-15 22:28N 43°02' E 008°29'715.8
2017-Apr-15 22:00N 43°03' E 008°39'815.8
2017-Apr-15 21:30N 43°03' E 008°49'815.9
2017-Apr-15 21:00N 43°03' E 009°00'816.0
2017-Apr-15 20:31N 43°04' E 009°11'816.5
2017-Apr-15 20:00N 43°04' E 009°23'715.1
2017-Apr-15 19:30N 43°01' E 009°31'14 3.3
2017-Apr-15 15:14N 42°53' E 009°47'417.4
2017-Apr-15 15:00N 42°55' E 009°52'816.0
2017-Apr-15 14:31N 43°01' E 009°59'2019.5
2017-Apr-15 13:31N 43°20' E 010°07'1019.5
2017-Apr-15 13:01N 43°29' E 010°12'611.3
2017-Apr-15 12:31N 43°33' E 010°17'0 0.8
2017-Apr-15 12:00N 43°33' E 010°18'0 0.0
2017-Apr-15 11:30N 43°33' E 010°18'0 0.0
2017-Apr-15 11:00N 43°33' E 010°18'0 0.0
2017-Apr-15 10:30N 43°33' E 010°18'3 5.3
2017-Apr-15 10:00N 43°31' E 010°15'917.8
2017-Apr-15 09:31N 43°23' E 010°10'1019.0
2017-Apr-15 09:00N 43°14' E 010°05'18013.2
2017-Apr-14 19:23N 43°04' E 005°58'3 8.6
2017-Apr-14 19:00N 43°07' E 005°56'  

Dump ship's entire track history